Time;durP1;ratioP1;P1;durP2;ratioP2;P2;SDS_P1;SDS_P2;PMS_P1;PMS_P2;Temp;Humidity;BMP_temperature;BMP_pressure;BME280_temperature;BME280_humidity;BME280_pressure;Samples;Min_cycle;Max_cycle;Signal;HPM_P1;HPM_P2
2021/04/25 00:02:16;;;;;;;;;;;18.20;46.90;;;;;;5067827;28;20285;-71
2021/04/25 00:04:42;;;;;;;;;;;18.10;48.30;;;;;;5076218;28;20338;-71
2021/04/25 00:07:08;;;;;;;;;;;18.00;48.50;;;;;;5078932;28;19916;-72
2021/04/25 00:09:34;;;;;;;;;;;17.90;48.90;;;;;;5076648;28;20417;-71
2021/04/25 00:12:01;;;;;;;;;;;18.00;48.50;;;;;;5078659;28;19958;-71
2021/04/25 00:14:27;;;;;;;;;;;18.00;48.50;;;;;;5074392;28;19927;-72
2021/04/25 00:16:53;;;;;;;;;;;18.00;47.50;;;;;;5073386;28;20009;-71
2021/04/25 00:19:19;;;;;;;;;;;18.00;48.60;;;;;;5076079;28;19939;-72
2021/04/25 00:21:45;;;;;;;;;;;17.90;48.60;;;;;;5076773;28;19923;-72
2021/04/25 00:24:11;;;;;;;;;;;17.90;49.10;;;;;;5076183;28;19920;-71
2021/04/25 00:26:37;;;;;;;;;;;17.70;49.40;;;;;;5075807;28;20011;-72
2021/04/25 00:29:04;;;;;;;;;;;17.70;50.10;;;;;;5076415;28;20334;-72
2021/04/25 00:31:30;;;;;;;;;;;17.70;49.70;;;;;;5076542;28;20356;-72
2021/04/25 00:33:56;;;;;;;;;;;17.70;50.10;;;;;;5075786;28;19919;-72
2021/04/25 00:36:22;;;;;;;;;;;17.70;50.00;;;;;;5075915;28;19978;-72
2021/04/25 00:38:48;;;;;;;;;;;17.60;50.20;;;;;;5075000;28;19920;-72
2021/04/25 00:41:14;;;;;;;;;;;17.60;50.80;;;;;;5074788;28;19931;-71
2021/04/25 00:43:40;;;;;;;;;;;17.50;51.20;;;;;;5076197;28;19923;-70
2021/04/25 00:46:06;;;;;;;;;;;17.30;51.50;;;;;;5074663;28;20022;-72
2021/04/25 00:48:33;;;;;;;;;;;17.10;51.70;;;;;;5075064;28;19921;-70
2021/04/25 00:50:59;;;;;;;;;;;17.10;52.30;;;;;;5087640;28;19942;-71
2021/04/25 00:53:25;;;;;;;;;;;17.20;52.20;;;;;;5077561;28;19913;-71
2021/04/25 00:55:52;;;;;;;;;;;17.20;52.50;;;;;;5076320;28;19908;-71
2021/04/25 00:58:18;;;;;;;;;;;17.20;52.70;;;;;;5073439;28;19948;-72
2021/04/25 01:00:45;;;;;;;;;;;17.20;52.80;;;;;;5074778;28;19919;-72
2021/04/25 01:03:11;;;;;;;;;;;17.10;52.60;;;;;;5079800;28;19912;-71
2021/04/25 01:05:37;;;;;;;;;;;17.00;52.80;;;;;;5087437;28;19916;-72
2021/04/25 01:08:03;;;;;;;;;;;16.90;53.00;;;;;;5074550;28;20269;-71
2021/04/25 01:10:29;;;;;;;;;;;17.00;53.30;;;;;;5073775;28;20239;-71
2021/04/25 01:12:55;;;;;;;;;;;16.90;53.50;;;;;;5074454;28;19912;-71
2021/04/25 01:15:22;;;;;;;;;;;16.90;53.50;;;;;;5074673;28;19912;-71
2021/04/25 01:17:49;;;;;;;;;;;17.00;53.30;;;;;;5066380;28;19920;-71
2021/04/25 01:20:17;;;;;;;;;;;17.00;53.80;;;;;;5073879;28;19913;-70
2021/04/25 01:22:43;;;;;;;;;;;16.80;53.70;;;;;;5071609;28;19966;-71
2021/04/25 01:25:10;;;;;;;;;;;16.80;53.80;;;;;;5074449;28;19978;-71
2021/04/25 01:27:36;;;;;;;;;;;16.70;54.30;;;;;;5074111;28;19913;-71
2021/04/25 01:30:06;;;;;;;;;;;16.80;54.20;;;;;;5074171;28;20007;-72
2021/04/25 01:32:34;;;;;;;;;;;16.60;54.50;;;;;;5073528;28;20210;-71
2021/04/25 01:35:00;;;;;;;;;;;16.70;53.80;;;;;;5073897;28;19955;-71
2021/04/25 01:37:26;;;;;;;;;;;16.70;54.20;;;;;;5074232;28;20200;-72
2021/04/25 01:39:52;;;;;;;;;;;16.60;54.50;;;;;;5072792;28;19922;-69
2021/04/25 01:42:19;;;;;;;;;;;16.50;54.80;;;;;;5065137;28;19986;-71
2021/04/25 01:44:45;;;;;;;;;;;16.60;55.00;;;;;;5050777;28;19956;-71
2021/04/25 01:47:11;;;;;;;;;;;16.50;55.10;;;;;;5047941;28;19919;-71
2021/04/25 01:49:37;;;;;;;;;;;16.40;54.80;;;;;;5052678;28;20235;-71
2021/04/25 01:52:03;;;;;;;;;;;16.50;54.60;;;;;;5055138;28;19923;-71
2021/04/25 01:54:29;;;;;;;;;;;16.50;54.60;;;;;;5055588;28;19920;-71
2021/04/25 01:56:55;;;;;;;;;;;16.50;55.20;;;;;;5039309;28;19924;-71
2021/04/25 01:59:21;;;;;;;;;;;16.40;55.20;;;;;;5055503;28;19913;-71
2021/04/25 02:01:47;;;;;;;;;;;16.50;55.40;;;;;;5055199;28;20369;-72
2021/04/25 02:04:14;;;;;;;;;;;16.40;55.40;;;;;;5055840;28;19924;-72
2021/04/25 02:06:42;;;;;;;;;;;16.50;55.60;;;;;;5054697;28;19920;-72
2021/04/25 02:09:09;;;;;;;;;;;16.50;55.30;;;;;;5042114;28;19935;-71
2021/04/25 02:11:35;;;;;;;;;;;16.30;55.60;;;;;;5047474;28;19913;-72
2021/04/25 02:14:03;;;;;;;;;;;16.40;55.70;;;;;;5054215;28;19913;-73
2021/04/25 02:16:29;;;;;;;;;;;16.40;55.70;;;;;;5055176;28;20323;-72
2021/04/25 02:18:55;;;;;;;;;;;16.50;55.30;;;;;;5056686;28;20007;-73
2021/04/25 02:21:21;;;;;;;;;;;16.40;55.60;;;;;;5053753;28;19951;-73
2021/04/25 02:23:47;;;;;;;;;;;16.50;55.30;;;;;;5039122;28;19952;-70
2021/04/25 02:26:13;;;;;;;;;;;16.20;55.70;;;;;;5053162;28;19920;-73
2021/04/25 02:28:39;;;;;;;;;;;16.30;55.20;;;;;;5053796;28;19916;-73
2021/04/25 02:31:05;;;;;;;;;;;16.30;55.40;;;;;;5054473;28;19923;-71
2021/04/25 02:33:31;;;;;;;;;;;16.40;55.30;;;;;;5058693;28;19970;-72
2021/04/25 02:35:57;;;;;;;;;;;16.20;55.30;;;;;;5053704;28;20314;-71
2021/04/25 02:38:23;;;;;;;;;;;16.40;55.50;;;;;;5054198;28;19936;-74
2021/04/25 02:40:49;;;;;;;;;;;16.50;55.10;;;;;;5052436;28;19956;-70
2021/04/25 02:43:15;;;;;;;;;;;16.30;55.30;;;;;;5074144;28;19924;-70
2021/04/25 02:45:41;;;;;;;;;;;16.40;55.60;;;;;;5072719;28;20004;-70
2021/04/25 02:48:09;;;;;;;;;;;16.40;55.90;;;;;;5070823;28;19917;-70
2021/04/25 02:50:42;;;;;;;;;;;16.30;55.40;;;;;;5072315;28;19947;-70
2021/04/25 02:53:08;;;;;;;;;;;16.30;55.70;;;;;;5071941;28;19912;-70
2021/04/25 02:55:35;;;;;;;;;;;16.10;55.80;;;;;;5074950;28;19946;-70
2021/04/25 02:58:01;;;;;;;;;;;16.10;56.10;;;;;;5079010;28;19981;-70
2021/04/25 03:00:28;;;;;;;;;;;16.10;55.90;;;;;;5075238;28;19913;-70
2021/04/25 03:02:55;;;;;;;;;;;16.10;55.80;;;;;;5071015;28;19914;-70
2021/04/25 03:05:21;;;;;;;;;;;16.10;56.60;;;;;;5070738;28;19913;-70
2021/04/25 03:07:47;;;;;;;;;;;16.20;56.30;;;;;;5072670;28;19921;-70
2021/04/25 03:10:13;;;;;;;;;;;16.20;55.80;;;;;;5072784;28;19912;-70
2021/04/25 03:12:42;;;;;;;;;;;16.00;56.10;;;;;;5094078;28;19912;-70
2021/04/25 03:15:09;;;;;;;;;;;16.10;56.10;;;;;;5073500;28;19912;-70
2021/04/25 03:17:35;;;;;;;;;;;16.10;55.80;;;;;;5072860;28;19913;-70
2021/04/25 03:20:03;;;;;;;;;;;16.10;56.20;;;;;;5073922;28;20333;-70
2021/04/25 03:22:29;;;;;;;;;;;16.00;56.10;;;;;;5071719;28;19912;-70
2021/04/25 03:24:55;;;;;;;;;;;15.90;56.20;;;;;;5070555;28;19921;-70
2021/04/25 03:27:21;;;;;;;;;;;16.00;56.00;;;;;;5072893;28;19990;-70
2021/04/25 03:29:47;;;;;;;;;;;16.10;56.20;;;;;;5073780;28;20632;-70
2021/04/25 03:32:13;;;;;;;;;;;15.90;56.20;;;;;;5073583;28;19916;-70
2021/04/25 03:34:39;;;;;;;;;;;16.10;56.20;;;;;;5073359;28;19912;-70
2021/04/25 03:37:05;;;;;;;;;;;16.10;55.90;;;;;;5072445;28;19913;-70
2021/04/25 03:39:31;;;;;;;;;;;16.00;56.00;;;;;;5072720;28;19921;-70
2021/04/25 03:41:57;;;;;;;;;;;16.10;56.00;;;;;;5070556;28;20025;-70
2021/04/25 03:44:24;;;;;;;;;;;16.00;56.50;;;;;;5102471;28;20366;-70
2021/04/25 03:46:50;;;;;;;;;;;16.00;56.70;;;;;;5070352;28;19920;-70
2021/04/25 03:49:21;;;;;;;;;;;16.00;56.80;;;;;;5072244;28;19923;-70
2021/04/25 03:51:48;;;;;;;;;;;15.90;56.50;;;;;;5063662;28;20388;-70
2021/04/25 03:54:14;;;;;;;;;;;15.90;56.60;;;;;;5073410;28;20247;-70
2021/04/25 03:56:41;;;;;;;;;;;16.00;56.70;;;;;;5064988;28;20410;-72
2021/04/25 03:59:07;;;;;;;;;;;16.00;57.00;;;;;;5069626;28;19964;-70
2021/04/25 04:01:33;;;;;;;;;;;15.80;56.90;;;;;;5077613;28;19928;-71
2021/04/25 04:03:59;;;;;;;;;;;15.90;57.00;;;;;;5078868;28;19952;-70
2021/04/25 04:06:25;;;;;;;;;;;15.80;57.10;;;;;;5077005;28;20257;-70
2021/04/25 04:08:51;;;;;;;;;;;15.80;58.10;;;;;;5075960;28;19920;-71
2021/04/25 04:11:17;;;;;;;;;;;16.10;58.00;;;;;;5075901;28;19917;-70
2021/04/25 04:13:43;;;;;;;;;;;15.90;57.70;;;;;;5069947;28;19916;-70
2021/04/25 04:16:09;;;;;;;;;;;16.00;58.00;;;;;;5076782;28;19919;-70
2021/04/25 04:18:35;;;;;;;;;;;16.10;58.00;;;;;;5076558;28;19935;-70
2021/04/25 04:21:01;;;;;;;;;;;16.00;57.60;;;;;;5070314;28;19917;-70
2021/04/25 04:23:27;;;;;;;;;;;15.90;57.40;;;;;;5073153;28;20242;-71
2021/04/25 04:25:53;;;;;;;;;;;15.70;57.70;;;;;;5076277;28;19912;-71
2021/04/25 04:28:19;;;;;;;;;;;15.70;58.30;;;;;;5089776;28;19938;-70
2021/04/25 04:30:45;;;;;;;;;;;15.90;58.40;;;;;;5073179;28;19915;-70
2021/04/25 04:33:11;;;;;;;;;;;15.80;58.00;;;;;;5075812;28;19920;-70
2021/04/25 04:35:38;;;;;;;;;;;15.90;58.30;;;;;;5076420;28;19912;-70
2021/04/25 04:38:04;;;;;;;;;;;15.90;57.40;;;;;;5074653;28;19921;-70
2021/04/25 04:40:30;;;;;;;;;;;16.00;57.90;;;;;;5076388;28;19952;-70
2021/04/25 04:42:56;;;;;;;;;;;15.90;57.30;;;;;;5076329;28;19951;-70
2021/04/25 04:45:22;;;;;;;;;;;15.70;58.20;;;;;;5072929;28;20286;-70
2021/04/25 04:47:48;;;;;;;;;;;15.50;57.90;;;;;;5074834;28;19981;-70
2021/04/25 04:50:14;;;;;;;;;;;15.40;58.60;;;;;;5076399;28;19920;-70
2021/04/25 04:52:40;;;;;;;;;;;15.30;58.60;;;;;;5076216;28;20375;-70
2021/04/25 04:55:07;;;;;;;;;;;15.20;59.30;;;;;;5076880;28;19913;-70
2021/04/25 04:57:33;;;;;;;;;;;15.30;58.80;;;;;;5075678;28;19981;-70
2021/04/25 04:59:59;;;;;;;;;;;15.50;59.70;;;;;;5076203;28;19916;-70
2021/04/25 05:02:25;;;;;;;;;;;15.60;58.50;;;;;;5075201;28;20003;-71
2021/04/25 05:04:51;;;;;;;;;;;15.40;59.00;;;;;;5074609;28;20014;-70
2021/04/25 05:07:17;;;;;;;;;;;15.30;59.00;;;;;;5074045;28;19916;-70
2021/04/25 05:09:43;;;;;;;;;;;15.40;59.50;;;;;;5076082;28;19935;-70
2021/04/25 05:12:09;;;;;;;;;;;15.20;59.90;;;;;;5076102;28;20294;-71
2021/04/25 05:14:35;;;;;;;;;;;15.40;59.30;;;;;;5076058;28;19973;-71
2021/04/25 05:17:01;;;;;;;;;;;15.50;58.90;;;;;;5076269;28;20320;-71
2021/04/25 05:19:27;;;;;;;;;;;15.40;59.10;;;;;;5075704;28;20050;-71
2021/04/25 05:21:53;;;;;;;;;;;15.40;58.90;;;;;;5075749;28;20030;-71
2021/04/25 05:24:19;;;;;;;;;;;15.30;59.70;;;;;;5074867;28;19908;-71
2021/04/25 05:26:46;;;;;;;;;;;15.40;59.20;;;;;;5074695;28;19981;-70
2021/04/25 05:29:12;;;;;;;;;;;15.40;58.80;;;;;;5073505;28;20118;-70
2021/04/25 05:31:38;;;;;;;;;;;15.40;59.40;;;;;;5074435;28;20103;-70
2021/04/25 05:34:04;;;;;;;;;;;15.20;60.00;;;;;;5073846;28;20525;-70
2021/04/25 05:36:30;;;;;;;;;;;15.40;59.20;;;;;;5069910;28;19998;-70
2021/04/25 05:38:56;;;;;;;;;;;15.70;59.00;;;;;;5070925;28;20381;-71
2021/04/25 05:41:22;;;;;;;;;;;15.60;58.30;;;;;;5075241;28;19952;-70
2021/04/25 05:43:48;;;;;;;;;;;15.70;58.90;;;;;;5073925;28;19920;-70
2021/04/25 05:46:14;;;;;;;;;;;15.50;59.60;;;;;;5072892;28;20007;-71
2021/04/25 05:48:42;;;;;;;;;;;15.60;59.40;;;;;;5074941;28;19916;-71
2021/04/25 05:51:08;;;;;;;;;;;15.60;58.80;;;;;;5074493;28;19912;-70
2021/04/25 05:53:34;;;;;;;;;;;15.60;59.00;;;;;;5074972;28;20019;-70
2021/04/25 05:56:01;;;;;;;;;;;15.50;59.10;;;;;;5075333;28;19912;-71
2021/04/25 05:58:27;;;;;;;;;;;15.70;59.70;;;;;;5078870;28;19946;-71
2021/04/25 06:00:53;;;;;;;;;;;15.90;59.30;;;;;;5071926;28;19924;-72
2021/04/25 06:03:19;;;;;;;;;;;15.90;59.00;;;;;;5071184;28;19913;-71
2021/04/25 06:05:45;;;;;;;;;;;15.90;59.60;;;;;;5070571;28;19913;-71
2021/04/25 06:08:11;;;;;;;;;;;16.00;59.40;;;;;;5073366;28;20262;-70
2021/04/25 06:10:37;;;;;;;;;;;15.90;59.90;;;;;;5074566;28;19923;-71
2021/04/25 06:13:03;;;;;;;;;;;15.90;59.70;;;;;;5071513;28;19920;-70
2021/04/25 06:15:29;;;;;;;;;;;15.80;59.20;;;;;;5072091;28;19912;-70
2021/04/25 06:17:57;;;;;;;;;;;15.80;60.90;;;;;;5074200;28;19920;-70
2021/04/25 06:20:23;;;;;;;;;;;15.90;60.50;;;;;;5074386;28;19917;-70
2021/04/25 06:22:49;;;;;;;;;;;15.70;61.70;;;;;;5073214;28;19939;-70
2021/04/25 06:25:16;;;;;;;;;;;15.60;60.60;;;;;;5073315;28;19916;-70
2021/04/25 06:27:42;;;;;;;;;;;15.60;62.00;;;;;;5075202;28;20083;-70
2021/04/25 06:30:09;;;;;;;;;;;15.50;61.50;;;;;;5073806;28;19999;-70
2021/04/25 06:32:35;;;;;;;;;;;15.50;62.80;;;;;;5074358;28;19913;-70
2021/04/25 06:35:02;;;;;;;;;;;15.50;62.50;;;;;;5074145;28;19947;-70
2021/04/25 06:37:28;;;;;;;;;;;15.20;64.50;;;;;;5074504;28;20337;-71
2021/04/25 06:39:54;;;;;;;;;;;15.40;64.70;;;;;;5074253;28;19916;-70
2021/04/25 06:42:20;;;;;;;;;;;15.40;65.80;;;;;;5074598;28;20256;-70
2021/04/25 06:44:46;;;;;;;;;;;15.50;65.80;;;;;;5073704;28;20417;-71
2021/04/25 06:47:12;;;;;;;;;;;15.60;65.90;;;;;;5072363;28;20346;-70
2021/04/25 06:49:38;;;;;;;;;;;15.40;66.50;;;;;;5073940;28;19912;-70
2021/04/25 06:52:05;;;;;;;;;;;15.30;66.50;;;;;;5074431;28;19916;-70
2021/04/25 06:54:31;;;;;;;;;;;15.40;66.70;;;;;;5073624;28;19913;-70
2021/04/25 06:56:57;;;;;;;;;;;15.20;66.40;;;;;;5073979;28;19924;-70
2021/04/25 06:59:23;;;;;;;;;;;15.30;66.00;;;;;;5072646;28;19917;-71
2021/04/25 07:01:49;;;;;;;;;;;15.20;65.80;;;;;;5073638;28;19919;-70
2021/04/25 07:04:15;;;;;;;;;;;15.20;67.40;;;;;;5073211;28;20254;-71
2021/04/25 07:06:41;;;;;;;;;;;15.20;67.10;;;;;;5100926;28;19919;-71
2021/04/25 07:09:08;;;;;;;;;;;15.20;66.10;;;;;;5074461;28;19919;-71
2021/04/25 07:11:34;;;;;;;;;;;15.10;66.50;;;;;;5073653;28;19919;-70
2021/04/25 07:14:00;;;;;;;;;;;15.10;66.40;;;;;;5073733;28;19912;-70
2021/04/25 07:16:26;;;;;;;;;;;15.20;66.50;;;;;;5073459;28;19912;-70
2021/04/25 07:18:52;;;;;;;;;;;15.20;66.60;;;;;;5074469;28;19943;-71
2021/04/25 07:21:18;;;;;;;;;;;15.20;66.10;;;;;;5072816;28;19921;-71
2021/04/25 07:23:44;;;;;;;;;;;15.10;66.10;;;;;;5073501;28;19908;-71
2021/04/25 07:26:12;;;;;;;;;;;15.00;65.90;;;;;;5073826;28;19912;-70
2021/04/25 07:28:38;;;;;;;;;;;14.90;66.20;;;;;;5076552;28;19944;-71
2021/04/25 07:31:04;;;;;;;;;;;14.80;67.30;;;;;;5077461;28;19920;-71
2021/04/25 07:33:32;;;;;;;;;;;14.90;68.00;;;;;;5078024;28;20320;-71
2021/04/25 07:36:00;;;;;;;;;;;15.00;66.60;;;;;;5078132;28;19960;-71
2021/04/25 07:38:26;;;;;;;;;;;14.90;67.20;;;;;;5077265;28;19962;-71
2021/04/25 07:40:53;;;;;;;;;;;14.70;68.80;;;;;;5077184;28;20365;-70
2021/04/25 07:43:19;;;;;;;;;;;14.80;67.00;;;;;;5078158;28;19928;-70
2021/04/25 07:45:45;;;;;;;;;;;14.80;67.00;;;;;;5076859;28;19912;-71
2021/04/25 07:48:11;;;;;;;;;;;14.80;66.70;;;;;;5076897;28;20368;-70
2021/04/25 07:50:37;;;;;;;;;;;14.50;68.90;;;;;;5077072;28;19920;-71
2021/04/25 07:53:04;;;;;;;;;;;14.70;67.00;;;;;;5077182;28;19999;-71
2021/04/25 07:55:30;;;;;;;;;;;14.80;66.40;;;;;;5077066;28;19916;-71
2021/04/25 07:57:56;;;;;;;;;;;14.70;68.00;;;;;;5077577;28;19919;-71
2021/04/25 08:00:22;;;;;;;;;;;14.80;66.70;;;;;;5080674;28;19978;-71
2021/04/25 08:02:48;;;;;;;;;;;14.80;66.70;;;;;;5079833;28;19923;-71
2021/04/25 08:05:14;;;;;;;;;;;14.80;67.10;;;;;;5077080;28;19912;-71
2021/04/25 08:07:40;;;;;;;;;;;14.60;68.60;;;;;;5075939;28;19912;-71
2021/04/25 08:10:07;;;;;;;;;;;14.70;66.80;;;;;;5076374;28;19982;-71
2021/04/25 08:12:33;;;;;;;;;;;14.70;67.10;;;;;;5071917;28;19921;-70
2021/04/25 08:14:59;;;;;;;;;;;14.90;66.00;;;;;;5074634;28;20110;-71
2021/04/25 08:17:25;;;;;;;;;;;14.80;66.90;;;;;;5077225;28;19952;-71
2021/04/25 08:19:51;;;;;;;;;;;14.80;66.60;;;;;;5076592;28;19920;-70
2021/04/25 08:22:18;;;;;;;;;;;14.60;67.80;;;;;;5076548;28;20274;-70
2021/04/25 08:24:44;;;;;;;;;;;14.70;66.30;;;;;;5075989;28;19913;-71
2021/04/25 08:27:10;;;;;;;;;;;14.80;65.80;;;;;;5077039;28;19932;-71
2021/04/25 08:29:36;;;;;;;;;;;14.80;66.50;;;;;;5076468;28;19919;-71
2021/04/25 08:32:02;;;;;;;;;;;14.60;67.20;;;;;;5076159;28;20015;-71
2021/04/25 08:34:28;;;;;;;;;;;14.70;66.30;;;;;;5076537;28;19920;-71
2021/04/25 08:36:54;;;;;;;;;;;14.70;66.20;;;;;;5075978;28;19912;-71
2021/04/25 08:39:20;;;;;;;;;;;14.50;66.10;;;;;;5075678;28;19916;-71
2021/04/25 08:41:47;;;;;;;;;;;14.40;66.10;;;;;;5075984;28;20019;-71
2021/04/25 08:44:17;;;;;;;;;;;14.60;65.90;;;;;;5076018;28;19920;-71
2021/04/25 08:46:43;;;;;;;;;;;14.40;66.00;;;;;;5076227;28;19912;-71
2021/04/25 08:49:09;;;;;;;;;;;14.40;65.80;;;;;;5075790;28;19912;-71
2021/04/25 08:51:35;;;;;;;;;;;14.50;65.50;;;;;;5076173;28;19942;-70
2021/04/25 08:54:01;;;;;;;;;;;14.50;65.40;;;;;;5074572;28;19913;-70
2021/04/25 08:56:27;;;;;;;;;;;14.50;65.10;;;;;;5075542;28;19924;-70
2021/04/25 08:58:56;;;;;;;;;;;14.60;64.90;;;;;;5075634;28;19966;-70
2021/04/25 09:01:22;;;;;;;;;;;14.50;64.80;;;;;;5075086;28;20315;-71
2021/04/25 09:03:48;;;;;;;;;;;14.50;64.70;;;;;;5075103;28;20011;-70
2021/04/25 09:06:14;;;;;;;;;;;14.60;64.80;;;;;;5073870;28;19999;-70
2021/04/25 09:08:42;;;;;;;;;;;14.50;64.30;;;;;;5074084;28;19966;-70
2021/04/25 09:11:08;;;;;;;;;;;14.30;64.80;;;;;;5076513;28;20369;-70
2021/04/25 09:13:34;;;;;;;;;;;14.30;65.10;;;;;;5075449;28;19912;-70
2021/04/25 09:16:09;;;;;;;;;;;14.20;64.70;;;;;;5075501;28;19924;-70
2021/04/25 09:18:35;;;;;;;;;;;14.20;64.70;;;;;;5075083;28;19920;-70
2021/04/25 09:21:05;;;;;;;;;;;14.00;64.50;;;;;;5060303;28;19921;-70
2021/04/25 09:23:31;;;;;;;;;;;14.00;64.30;;;;;;5075574;28;19909;-72
2021/04/25 09:26:00;;;;;;;;;;;14.30;62.50;;;;;;5074800;28;19917;-70
2021/04/25 09:28:26;;;;;;;;;;;14.60;61.50;;;;;;5068118;28;19912;-71
2021/04/25 09:30:55;;;;;;;;;;;14.20;62.50;;;;;;5075394;28;20231;-70
2021/04/25 09:33:23;;;;;;;;;;;14.00;63.70;;;;;;5066347;28;19970;-70
2021/04/25 09:35:51;;;;;;;;;;;13.90;64.90;;;;;;5074876;28;19923;-70
2021/04/25 09:38:17;;;;;;;;;;;14.00;64.00;;;;;;5075311;28;20098;-70
2021/04/25 09:40:44;;;;;;;;;;;14.20;63.20;;;;;;5074984;28;20386;-70
2021/04/25 09:43:11;;;;;;;;;;;14.20;63.20;;;;;;5075374;28;19943;-70
2021/04/25 09:45:39;;;;;;;;;;;13.90;63.40;;;;;;5074873;28;19916;-70
2021/04/25 09:48:21;;;;;;;;;;;13.90;63.70;;;;;;5075229;28;20334;-70
2021/04/25 09:51:03;;;;;;;;;;;14.00;63.40;;;;;;5072834;28;19916;-70
2021/04/25 09:53:29;;;;;;;;;;;14.10;63.60;;;;;;5074612;28;20046;-70
2021/04/25 09:55:56;;;;;;;;;;;14.10;63.40;;;;;;5075465;28;19919;-70
2021/04/25 09:58:22;;;;;;;;;;;14.20;63.20;;;;;;5075676;28;19916;-70
2021/04/25 10:00:50;;;;;;;;;;;14.10;63.30;;;;;;5078853;28;19912;-70
2021/04/25 10:03:20;;;;;;;;;;;14.10;63.30;;;;;;5077642;28;19913;-71
2021/04/25 10:05:59;;;;;;;;;;;14.30;63.10;;;;;;5074946;28;19912;-70
2021/04/25 10:08:29;;;;;;;;;;;14.30;62.80;;;;;;5074162;28;19912;-70
2021/04/25 10:10:55;;;;;;;;;;;14.30;62.70;;;;;;5072933;28;20353;-70
2021/04/25 10:13:22;;;;;;;;;;;14.30;62.80;;;;;;5073560;28;23378;-70
2021/04/25 10:15:48;;;;;;;;;;;14.40;62.90;;;;;;5072174;28;19912;-70
2021/04/25 10:18:16;;;;;;;;;;;14.30;62.60;;;;;;5073834;28;21673;-70
2021/04/25 10:20:42;;;;;;;;;;;14.40;62.60;;;;;;5075196;28;19974;-70
2021/04/25 10:23:09;;;;;;;;;;;14.40;62.20;;;;;;5074892;28;19908;-70
2021/04/25 10:25:36;;;;;;;;;;;14.40;62.20;;;;;;5091168;28;19913;-70
2021/04/25 10:28:09;;;;;;;;;;;14.30;62.20;;;;;;5073921;28;19959;-70
2021/04/25 10:30:39;;;;;;;;;;;14.30;62.50;;;;;;5073824;28;19916;-71
2021/04/25 10:33:05;;;;;;;;;;;14.30;62.80;;;;;;5075313;28;19977;-70
2021/04/25 10:35:35;;;;;;;;;;;14.30;62.60;;;;;;5074010;28;19919;-70
2021/04/25 10:38:02;;;;;;;;;;;14.40;62.30;;;;;;5074067;28;19974;-71
2021/04/25 10:40:31;;;;;;;;;;;14.30;62.10;;;;;;5074575;28;19912;-70
2021/04/25 10:42:58;;;;;;;;;;;14.30;62.20;;;;;;5073949;28;19946;-70
2021/04/25 10:45:28;;;;;;;;;;;14.30;62.30;;;;;;5074030;28;19920;-70
2021/04/25 10:48:12;;;;;;;;;;;14.30;62.00;;;;;;5073547;28;19920;-70
2021/04/25 10:50:39;;;;;;;;;;;14.30;61.90;;;;;;5073933;28;20328;-70
2021/04/25 10:53:18;;;;;;;;;;;14.20;62.40;;;;;;5074475;28;20334;-70
2021/04/25 10:55:45;;;;;;;;;;;14.20;62.40;;;;;;5073314;28;19912;-70
2021/04/25 10:58:11;;;;;;;;;;;14.20;62.30;;;;;;5074163;28;19927;-70
2021/04/25 11:00:39;;;;;;;;;;;14.10;62.20;;;;;;5073026;28;20270;-70
2021/04/25 11:03:09;;;;;;;;;;;14.20;62.50;;;;;;5073720;28;19920;-70
2021/04/25 11:05:35;;;;;;;;;;;14.20;62.40;;;;;;5073841;28;19912;-71
2021/04/25 11:08:05;;;;;;;;;;;14.10;62.30;;;;;;5073316;28;19970;-70
2021/04/25 11:10:51;;;;;;;;;;;14.20;62.60;;;;;;5071736;28;19927;-70
2021/04/25 11:13:54;;;;;;;;;;;14.30;62.50;;;;;;5070790;28;19916;-70
2021/04/25 11:16:22;;;;;;;;;;;14.10;62.40;;;;;;5073604;28;19918;-70
2021/04/25 11:19:00;;;;;;;;;;;14.00;62.60;;;;;;5073117;28;20330;-70
2021/04/25 11:21:26;;;;;;;;;;;14.00;62.60;;;;;;5074220;28;19920;-70
2021/04/25 11:24:05;;;;;;;;;;;14.00;62.90;;;;;;5073723;28;19962;-70
2021/04/25 11:26:37;;;;;;;;;;;13.90;63.20;;;;;;5073397;28;20230;-70
2021/04/25 11:29:10;;;;;;;;;;;14.00;63.20;;;;;;5073253;28;19912;-71
2021/04/25 11:34:27;;;;;;;;;;;13.90;63.30;;;;;;5073359;28;20346;-70
2021/04/25 11:36:56;;;;;;;;;;;14.00;63.30;;;;;;5054470;28;19919;-70
2021/04/25 11:39:23;;;;;;;;;;;14.00;62.80;;;;;;5072651;28;19966;-70
2021/04/25 11:41:50;;;;;;;;;;;14.00;62.70;;;;;;5072542;28;19924;-70
2021/04/25 11:44:26;;;;;;;;;;;14.00;62.30;;;;;;5073119;28;20257;-70
2021/04/25 11:46:52;;;;;;;;;;;14.10;62.30;;;;;;5068407;28;19913;-70
2021/04/25 11:49:28;;;;;;;;;;;14.00;62.30;;;;;;5073497;28;19935;-70
2021/04/25 11:52:07;;;;;;;;;;;14.00;62.40;;;;;;5073792;28;19913;-70
2021/04/25 11:54:34;;;;;;;;;;;14.00;62.20;;;;;;5073087;28;19919;-70
2021/04/25 11:57:09;;;;;;;;;;;13.90;62.60;;;;;;5074487;28;19917;-70
2021/04/25 11:59:36;;;;;;;;;;;14.10;62.20;;;;;;5073885;28;19917;-70
2021/04/25 12:02:05;;;;;;;;;;;14.00;62.30;;;;;;5073635;28;19963;-72
2021/04/25 12:04:45;;;;;;;;;;;14.00;63.00;;;;;;5063426;28;19935;-70
2021/04/25 12:07:11;;;;;;;;;;;13.90;62.50;;;;;;5073243;28;20354;-70
2021/04/25 12:09:38;;;;;;;;;;;13.90;62.60;;;;;;5072453;28;19931;-70
2021/04/25 12:12:07;;;;;;;;;;;14.00;63.00;;;;;;5064438;28;19966;-70
2021/04/25 12:14:33;;;;;;;;;;;14.00;62.80;;;;;;5074374;28;19913;-70
2021/04/25 12:17:26;;;;;;;;;;;14.10;62.30;;;;;;5064399;28;19966;-70
2021/04/25 12:19:52;;;;;;;;;;;13.90;62.80;;;;;;5067303;28;19920;-70
2021/04/25 12:22:18;;;;;;;;;;;13.80;62.90;;;;;;5068303;28;20026;-70
2021/04/25 12:24:44;;;;;;;;;;;13.80;63.20;;;;;;5076276;28;20258;-70
2021/04/25 12:27:10;;;;;;;;;;;13.80;63.30;;;;;;5075730;28;19955;-70
2021/04/25 12:29:36;;;;;;;;;;;13.90;62.70;;;;;;5061180;28;19912;-70
2021/04/25 12:32:03;;;;;;;;;;;13.90;63.10;;;;;;5073221;28;19995;-71
2021/04/25 12:34:31;;;;;;;;;;;13.90;62.80;;;;;;5072799;28;19944;-70
2021/04/25 12:36:59;;;;;;;;;;;14.00;62.90;;;;;;5066368;28;19917;-70
2021/04/25 12:39:45;;;;;;;;;;;13.90;63.50;;;;;;5064412;28;20338;-70
2021/04/25 12:42:21;;;;;;;;;;;13.90;63.40;;;;;;5062923;28;20339;-70
2021/04/25 12:44:47;;;;;;;;;;;14.00;62.50;;;;;;5056685;28;19925;-70
2021/04/25 12:47:13;;;;;;;;;;;14.00;62.50;;;;;;5055923;28;19912;-70
2021/04/25 12:49:42;;;;;;;;;;;13.90;62.60;;;;;;5054988;28;20251;-70
2021/04/25 12:52:10;;;;;;;;;;;13.80;62.40;;;;;;5059257;28;19913;-70
2021/04/25 12:54:43;;;;;;;;;;;13.70;63.20;;;;;;5055227;28;19912;-70
2021/04/25 12:57:10;;;;;;;;;;;13.70;63.30;;;;;;5055151;28;19912;-70
2021/04/25 12:59:37;;;;;;;;;;;13.80;63.10;;;;;;5055530;28;20801;-70
2021/04/25 13:02:03;;;;;;;;;;;13.70;63.00;;;;;;5056206;28;19913;-70
2021/04/25 13:04:29;;;;;;;;;;;13.70;63.10;;;;;;5054557;28;19920;-70
2021/04/25 13:07:13;;;;;;;;;;;13.80;63.10;;;;;;5056056;28;19936;-70
2021/04/25 13:09:39;;;;;;;;;;;13.90;63.20;;;;;;5046842;28;19920;-70
2021/04/25 13:12:23;;;;;;;;;;;14.00;62.40;;;;;;5056210;28;19920;-70
2021/04/25 13:14:55;;;;;;;;;;;14.00;62.30;;;;;;5044164;28;20254;-70
2021/04/25 13:17:21;;;;;;;;;;;14.10;61.90;;;;;;5054942;28;20385;-70
2021/04/25 13:19:47;;;;;;;;;;;14.00;61.70;;;;;;5055834;28;19939;-70
2021/04/25 13:22:13;;;;;;;;;;;13.90;62.00;;;;;;5055384;28;20342;-70
2021/04/25 13:24:40;;;;;;;;;;;14.00;61.60;;;;;;5052248;28;19913;-70
2021/04/25 13:27:06;;;;;;;;;;;13.90;61.70;;;;;;5055300;28;19932;-70
2021/04/25 13:29:32;;;;;;;;;;;14.00;61.20;;;;;;5053188;28;19935;-70
2021/04/25 13:31:58;;;;;;;;;;;13.90;61.20;;;;;;5054988;28;20340;-70
2021/04/25 13:34:24;;;;;;;;;;;13.90;60.90;;;;;;5035189;28;20268;-70
2021/04/25 13:36:50;;;;;;;;;;;13.80;61.40;;;;;;5053759;28;19913;-71
2021/04/25 13:39:16;;;;;;;;;;;13.80;61.30;;;;;;5055680;28;20357;-71
2021/04/25 13:41:42;;;;;;;;;;;13.70;62.00;;;;;;5060838;28;19982;-71
2021/04/25 13:44:10;;;;;;;;;;;13.60;62.10;;;;;;5066468;28;19940;-71
2021/04/25 13:46:36;;;;;;;;;;;13.60;62.20;;;;;;5073556;28;19912;-72
2021/04/25 13:49:04;;;;;;;;;;;13.70;61.90;;;;;;5073808;28;19920;-71
2021/04/25 13:51:34;;;;;;;;;;;13.80;61.40;;;;;;5074473;28;19913;-71
2021/04/25 13:54:00;;;;;;;;;;;13.70;62.00;;;;;;5074510;28;19913;-71
2021/04/25 13:56:26;;;;;;;;;;;13.70;62.10;;;;;;5075291;28;19979;-72
2021/04/25 13:58:52;;;;;;;;;;;13.70;62.40;;;;;;5077452;28;19912;-71
2021/04/25 14:01:19;;;;;;;;;;;13.80;62.40;;;;;;5076584;28;19913;-71
2021/04/25 14:03:45;;;;;;;;;;;13.80;62.30;;;;;;5074152;28;19974;-71
2021/04/25 14:06:11;;;;;;;;;;;13.90;62.20;;;;;;5073908;28;20399;-71
2021/04/25 14:08:37;;;;;;;;;;;14.00;61.50;;;;;;5071524;28;19947;-70
2021/04/25 14:11:04;;;;;;;;;;;14.00;61.30;;;;;;5073425;28;19951;-71
2021/04/25 14:13:30;;;;;;;;;;;14.00;61.30;;;;;;5074256;28;19922;-71
2021/04/25 14:15:56;;;;;;;;;;;13.90;61.60;;;;;;5074983;28;20011;-71
2021/04/25 14:18:22;;;;;;;;;;;13.90;61.90;;;;;;5074160;28;19917;-70
2021/04/25 14:20:48;;;;;;;;;;;14.00;61.90;;;;;;5074681;28;19940;-71